sensor_id;sensor_type;location;lat;lon;timestamp;P1;durP1;ratioP1;P2;durP2;ratioP2
60372;SDS011;46216;52.220;5.134;2022-08-30T00:02:29;6.15;;;3.25;;
60372;SDS011;46216;52.220;5.134;2022-08-30T00:04:55;5.95;;;3.28;;
60372;SDS011;46216;52.220;5.134;2022-08-30T00:07:22;7.53;;;3.22;;
60372;SDS011;46216;52.220;5.134;2022-08-30T00:09:47;9.30;;;3.88;;
60372;SDS011;46216;52.220;5.134;2022-08-30T00:12:12;5.47;;;3.10;;
60372;SDS011;46216;52.220;5.134;2022-08-30T00:14:38;7.80;;;3.38;;
60372;SDS011;46216;52.220;5.134;2022-08-30T00:17:03;5.43;;;3.28;;
60372;SDS011;46216;52.220;5.134;2022-08-30T00:19:29;9.20;;;3.42;;
60372;SDS011;46216;52.220;5.134;2022-08-30T00:21:54;4.50;;;2.78;;
60372;SDS011;46216;52.220;5.134;2022-08-30T00:24:20;4.85;;;3.47;;
60372;SDS011;46216;52.220;5.134;2022-08-30T00:26:45;6.18;;;3.47;;
60372;SDS011;46216;52.220;5.134;2022-08-30T00:29:10;6.93;;;3.35;;
60372;SDS011;46216;52.220;5.134;2022-08-30T00:31:35;7.03;;;3.13;;
60372;SDS011;46216;52.220;5.134;2022-08-30T00:34:01;5.07;;;2.95;;
60372;SDS011;46216;52.220;5.134;2022-08-30T00:36:26;5.22;;;3.28;;
60372;SDS011;46216;52.220;5.134;2022-08-30T00:38:51;4.85;;;3.10;;
60372;SDS011;46216;52.220;5.134;2022-08-30T00:41:17;6.28;;;3.63;;
60372;SDS011;46216;52.220;5.134;2022-08-30T00:43:42;4.55;;;3.45;;
60372;SDS011;46216;52.220;5.134;2022-08-30T00:46:07;5.40;;;3.20;;
60372;SDS011;46216;52.220;5.134;2022-08-30T00:48:35;6.72;;;3.88;;
60372;SDS011;46216;52.220;5.134;2022-08-30T00:51:04;7.07;;;3.20;;
60372;SDS011;46216;52.220;5.134;2022-08-30T00:53:34;6.55;;;3.50;;
60372;SDS011;46216;52.220;5.134;2022-08-30T00:56:02;7.88;;;3.70;;
60372;SDS011;46216;52.220;5.134;2022-08-30T00:58:30;7.43;;;3.80;;
60372;SDS011;46216;52.220;5.134;2022-08-30T01:00:59;4.78;;;3.97;;
60372;SDS011;46216;52.220;5.134;2022-08-30T01:03:25;9.50;;;4.00;;
60372;SDS011;46216;52.220;5.134;2022-08-30T01:05:51;6.07;;;3.72;;
60372;SDS011;46216;52.220;5.134;2022-08-30T01:08:17;6.82;;;4.45;;
60372;SDS011;46216;52.220;5.134;2022-08-30T01:10:45;7.32;;;4.10;;
60372;SDS011;46216;52.220;5.134;2022-08-30T01:13:11;8.63;;;3.80;;
60372;SDS011;46216;52.220;5.134;2022-08-30T01:15:37;5.63;;;3.90;;
60372;SDS011;46216;52.220;5.134;2022-08-30T01:18:04;6.43;;;4.40;;
60372;SDS011;46216;52.220;5.134;2022-08-30T01:20:36;7.15;;;4.43;;
60372;SDS011;46216;52.220;5.134;2022-08-30T01:23:09;6.85;;;4.45;;
60372;SDS011;46216;52.220;5.134;2022-08-30T01:25:37;7.28;;;4.75;;
60372;SDS011;46216;52.220;5.134;2022-08-30T01:28:07;5.95;;;4.55;;
60372;SDS011;46216;52.220;5.134;2022-08-30T01:30:35;5.90;;;4.70;;
60372;SDS011;46216;52.220;5.134;2022-08-30T01:33:06;8.95;;;5.00;;
60372;SDS011;46216;52.220;5.134;2022-08-30T01:38:32;7.25;;;5.57;;
60372;SDS011;46216;52.220;5.134;2022-08-30T01:41:06;6.43;;;5.03;;
60372;SDS011;46216;52.220;5.134;2022-08-30T01:43:32;10.05;;;5.35;;
60372;SDS011;46216;52.220;5.134;2022-08-30T01:45:58;6.60;;;5.30;;
60372;SDS011;46216;52.220;5.134;2022-08-30T01:48:24;7.63;;;5.18;;
60372;SDS011;46216;52.220;5.134;2022-08-30T01:50:49;8.75;;;5.75;;
60372;SDS011;46216;52.220;5.134;2022-08-30T01:53:15;7.93;;;5.60;;
60372;SDS011;46216;52.220;5.134;2022-08-30T01:55:41;6.97;;;6.07;;
60372;SDS011;46216;52.220;5.134;2022-08-30T01:58:06;9.48;;;5.53;;
60372;SDS011;46216;52.220;5.134;2022-08-30T02:00:32;6.28;;;5.35;;
60372;SDS011;46216;52.220;5.134;2022-08-30T02:02:57;6.93;;;5.43;;
60372;SDS011;46216;52.220;5.134;2022-08-30T02:05:22;6.68;;;5.85;;
60372;SDS011;46216;52.220;5.134;2022-08-30T02:07:48;6.68;;;5.80;;
60372;SDS011;46216;52.220;5.134;2022-08-30T02:10:13;7.55;;;5.55;;
60372;SDS011;46216;52.220;5.134;2022-08-30T02:12:39;7.38;;;6.10;;
60372;SDS011;46216;52.220;5.134;2022-08-30T02:15:05;6.20;;;5.50;;
60372;SDS011;46216;52.220;5.134;2022-08-30T02:17:31;7.68;;;6.03;;
60372;SDS011;46216;52.220;5.134;2022-08-30T02:19:57;7.32;;;5.55;;
60372;SDS011;46216;52.220;5.134;2022-08-30T02:22:22;7.05;;;6.18;;
60372;SDS011;46216;52.220;5.134;2022-08-30T02:24:47;6.35;;;5.75;;
60372;SDS011;46216;52.220;5.134;2022-08-30T02:27:13;8.43;;;6.43;;
60372;SDS011;46216;52.220;5.134;2022-08-30T02:29:38;7.50;;;6.18;;
60372;SDS011;46216;52.220;5.134;2022-08-30T02:32:04;7.90;;;6.70;;
60372;SDS011;46216;52.220;5.134;2022-08-30T02:34:29;7.80;;;6.43;;
60372;SDS011;46216;52.220;5.134;2022-08-30T02:36:55;10.32;;;6.47;;
60372;SDS011;46216;52.220;5.134;2022-08-30T02:39:20;7.47;;;6.68;;
60372;SDS011;46216;52.220;5.134;2022-08-30T02:41:46;7.75;;;6.32;;
60372;SDS011;46216;52.220;5.134;2022-08-30T02:44:12;7.78;;;6.85;;
60372;SDS011;46216;52.220;5.134;2022-08-30T02:46:37;7.63;;;6.88;;
60372;SDS011;46216;52.220;5.134;2022-08-30T02:49:03;8.15;;;7.03;;
60372;SDS011;46216;52.220;5.134;2022-08-30T02:51:29;8.45;;;6.78;;
60372;SDS011;46216;52.220;5.134;2022-08-30T02:53:54;9.15;;;6.80;;
60372;SDS011;46216;52.220;5.134;2022-08-30T02:56:19;11.38;;;7.03;;
60372;SDS011;46216;52.220;5.134;2022-08-30T02:58:45;8.35;;;7.47;;
60372;SDS011;46216;52.220;5.134;2022-08-30T03:01:12;9.23;;;7.28;;
60372;SDS011;46216;52.220;5.134;2022-08-30T03:03:40;11.20;;;7.25;;
60372;SDS011;46216;52.220;5.134;2022-08-30T03:06:07;8.50;;;7.32;;
60372;SDS011;46216;52.220;5.134;2022-08-30T03:08:34;8.40;;;7.60;;
60372;SDS011;46216;52.220;5.134;2022-08-30T03:11:00;7.47;;;6.78;;
60372;SDS011;46216;52.220;5.134;2022-08-30T03:13:26;11.98;;;8.23;;
60372;SDS011;46216;52.220;5.134;2022-08-30T03:15:52;8.60;;;7.80;;
60372;SDS011;46216;52.220;5.134;2022-08-30T03:18:18;9.52;;;7.78;;
60372;SDS011;46216;52.220;5.134;2022-08-30T03:20:44;9.95;;;8.45;;
60372;SDS011;46216;52.220;5.134;2022-08-30T03:23:11;9.95;;;8.13;;
60372;SDS011;46216;52.220;5.134;2022-08-30T03:25:36;8.77;;;7.47;;
60372;SDS011;46216;52.220;5.134;2022-08-30T03:28:03;11.80;;;8.38;;
60372;SDS011;46216;52.220;5.134;2022-08-30T03:30:29;9.80;;;7.75;;
60372;SDS011;46216;52.220;5.134;2022-08-30T03:32:55;9.02;;;7.88;;
60372;SDS011;46216;52.220;5.134;2022-08-30T03:35:20;9.32;;;8.02;;
60372;SDS011;46216;52.220;5.134;2022-08-30T03:37:46;10.50;;;7.32;;
60372;SDS011;46216;52.220;5.134;2022-08-30T03:40:13;9.88;;;7.97;;
60372;SDS011;46216;52.220;5.134;2022-08-30T03:42:41;11.35;;;8.45;;
60372;SDS011;46216;52.220;5.134;2022-08-30T03:45:07;14.00;;;8.68;;
60372;SDS011;46216;52.220;5.134;2022-08-30T03:47:33;9.30;;;8.07;;
60372;SDS011;46216;52.220;5.134;2022-08-30T03:49:58;10.82;;;8.48;;
60372;SDS011;46216;52.220;5.134;2022-08-30T03:52:24;9.07;;;8.18;;
60372;SDS011;46216;52.220;5.134;2022-08-30T03:54:49;10.43;;;9.30;;
60372;SDS011;46216;52.220;5.134;2022-08-30T03:57:15;11.18;;;8.55;;
60372;SDS011;46216;52.220;5.134;2022-08-30T03:59:40;9.93;;;8.32;;
60372;SDS011;46216;52.220;5.134;2022-08-30T04:02:06;9.25;;;8.35;;
60372;SDS011;46216;52.220;5.134;2022-08-30T04:04:31;9.02;;;8.10;;
60372;SDS011;46216;52.220;5.134;2022-08-30T04:06:57;12.38;;;8.32;;
60372;SDS011;46216;52.220;5.134;2022-08-30T04:09:22;10.25;;;8.00;;
60372;SDS011;46216;52.220;5.134;2022-08-30T04:11:48;10.27;;;9.02;;
60372;SDS011;46216;52.220;5.134;2022-08-30T04:14:13;9.93;;;8.90;;
60372;SDS011;46216;52.220;5.134;2022-08-30T04:16:38;9.40;;;8.40;;
60372;SDS011;46216;52.220;5.134;2022-08-30T04:19:04;9.30;;;8.40;;
60372;SDS011;46216;52.220;5.134;2022-08-30T04:21:29;13.07;;;10.00;;
60372;SDS011;46216;52.220;5.134;2022-08-30T04:23:55;10.88;;;9.13;;
60372;SDS011;46216;52.220;5.134;2022-08-30T04:26:20;11.68;;;8.57;;
60372;SDS011;46216;52.220;5.134;2022-08-30T04:28:46;9.75;;;8.75;;
60372;SDS011;46216;52.220;5.134;2022-08-30T04:31:12;12.40;;;9.65;;
60372;SDS011;46216;52.220;5.134;2022-08-30T04:33:40;10.88;;;9.48;;
60372;SDS011;46216;52.220;5.134;2022-08-30T04:36:05;12.38;;;10.02;;
60372;SDS011;46216;52.220;5.134;2022-08-30T04:38:33;11.27;;;10.25;;
60372;SDS011;46216;52.220;5.134;2022-08-30T04:40:59;11.82;;;10.48;;
60372;SDS011;46216;52.220;5.134;2022-08-30T04:43:25;11.13;;;10.05;;
60372;SDS011;46216;52.220;5.134;2022-08-30T04:45:51;11.30;;;10.18;;
60372;SDS011;46216;52.220;5.134;2022-08-30T04:48:19;12.73;;;9.80;;
60372;SDS011;46216;52.220;5.134;2022-08-30T04:50:46;11.35;;;9.85;;
60372;SDS011;46216;52.220;5.134;2022-08-30T04:53:12;10.20;;;9.15;;
60372;SDS011;46216;52.220;5.134;2022-08-30T04:55:38;12.00;;;10.52;;
60372;SDS011;46216;52.220;5.134;2022-08-30T04:58:05;12.02;;;10.05;;
60372;SDS011;46216;52.220;5.134;2022-08-30T05:00:30;10.50;;;9.40;;
60372;SDS011;46216;52.220;5.134;2022-08-30T05:02:56;14.65;;;10.32;;
60372;SDS011;46216;52.220;5.134;2022-08-30T05:05:21;11.13;;;10.07;;
60372;SDS011;46216;52.220;5.134;2022-08-30T05:10:51;11.88;;;10.65;;
60372;SDS011;46216;52.220;5.134;2022-08-30T05:13:17;11.43;;;10.05;;
60372;SDS011;46216;52.220;5.134;2022-08-30T05:15:44;11.55;;;10.45;;
60372;SDS011;46216;52.220;5.134;2022-08-30T05:18:10;10.68;;;9.63;;
60372;SDS011;46216;52.220;5.134;2022-08-30T05:20:37;11.65;;;10.48;;
60372;SDS011;46216;52.220;5.134;2022-08-30T05:23:03;14.00;;;10.55;;
60372;SDS011;46216;52.220;5.134;2022-08-30T05:25:30;12.05;;;9.75;;
60372;SDS011;46216;52.220;5.134;2022-08-30T05:31:18;9.90;;;8.77;;
60372;SDS011;46216;52.220;5.134;2022-08-30T05:33:47;10.43;;;9.35;;
60372;SDS011;46216;52.220;5.134;2022-08-30T05:36:14;12.25;;;9.52;;
60372;SDS011;46216;52.220;5.134;2022-08-30T05:38:41;9.93;;;8.88;;
60372;SDS011;46216;52.220;5.134;2022-08-30T05:41:07;10.40;;;8.73;;
60372;SDS011;46216;52.220;5.134;2022-08-30T05:43:33;11.30;;;8.25;;
60372;SDS011;46216;52.220;5.134;2022-08-30T05:46:01;9.63;;;8.43;;
60372;SDS011;46216;52.220;5.134;2022-08-30T05:48:29;10.98;;;8.50;;
60372;SDS011;46216;52.220;5.134;2022-08-30T05:51:05;9.77;;;7.90;;
60372;SDS011;46216;52.220;5.134;2022-08-30T05:53:32;11.32;;;8.50;;
60372;SDS011;46216;52.220;5.134;2022-08-30T05:55:59;8.50;;;7.60;;
60372;SDS011;46216;52.220;5.134;2022-08-30T05:58:29;9.70;;;7.25;;
60372;SDS011;46216;52.220;5.134;2022-08-30T06:00:54;8.32;;;7.30;;
60372;SDS011;46216;52.220;5.134;2022-08-30T06:03:20;10.05;;;7.65;;
60372;SDS011;46216;52.220;5.134;2022-08-30T06:05:45;8.48;;;7.68;;
60372;SDS011;46216;52.220;5.134;2022-08-30T06:08:10;7.93;;;6.97;;
60372;SDS011;46216;52.220;5.134;2022-08-30T06:10:36;8.40;;;7.25;;
60372;SDS011;46216;52.220;5.134;2022-08-30T06:13:01;8.15;;;6.85;;
60372;SDS011;46216;52.220;5.134;2022-08-30T06:15:27;10.88;;;7.80;;
60372;SDS011;46216;52.220;5.134;2022-08-30T06:17:52;8.23;;;6.93;;
60372;SDS011;46216;52.220;5.134;2022-08-30T06:20:17;10.30;;;7.18;;
60372;SDS011;46216;52.220;5.134;2022-08-30T06:22:44;9.98;;;6.80;;
60372;SDS011;46216;52.220;5.134;2022-08-30T06:25:10;8.38;;;7.03;;
60372;SDS011;46216;52.220;5.134;2022-08-30T06:27:35;9.60;;;6.60;;
60372;SDS011;46216;52.220;5.134;2022-08-30T06:30:00;7.60;;;6.20;;
60372;SDS011;46216;52.220;5.134;2022-08-30T06:32:26;8.10;;;7.30;;
60372;SDS011;46216;52.220;5.134;2022-08-30T06:38:02;8.68;;;5.78;;
60372;SDS011;46216;52.220;5.134;2022-08-30T06:40:28;8.35;;;6.13;;
60372;SDS011;46216;52.220;5.134;2022-08-30T06:42:54;6.43;;;5.82;;
60372;SDS011;46216;52.220;5.134;2022-08-30T06:45:19;7.30;;;6.60;;
60372;SDS011;46216;52.220;5.134;2022-08-30T06:47:45;7.32;;;5.80;;
60372;SDS011;46216;52.220;5.134;2022-08-30T06:50:11;8.25;;;5.78;;
60372;SDS011;46216;52.220;5.134;2022-08-30T06:52:41;8.35;;;4.70;;
60372;SDS011;46216;52.220;5.134;2022-08-30T06:55:09;6.05;;;4.30;;
60372;SDS011;46216;52.220;5.134;2022-08-30T06:57:35;6.93;;;4.53;;
60372;SDS011;46216;52.220;5.134;2022-08-30T07:00:00;5.20;;;4.38;;
60372;SDS011;46216;52.220;5.134;2022-08-30T07:02:26;5.18;;;4.13;;
60372;SDS011;46216;52.220;5.134;2022-08-30T07:04:52;6.55;;;4.20;;
60372;SDS011;46216;52.220;5.134;2022-08-30T07:07:17;5.43;;;4.00;;
60372;SDS011;46216;52.220;5.134;2022-08-30T07:09:43;6.15;;;3.45;;
60372;SDS011;46216;52.220;5.134;2022-08-30T07:12:11;4.72;;;3.35;;
60372;SDS011;46216;52.220;5.134;2022-08-30T07:14:38;4.90;;;3.10;;
60372;SDS011;46216;52.220;5.134;2022-08-30T07:17:04;4.13;;;3.10;;
60372;SDS011;46216;52.220;5.134;2022-08-30T07:19:50;4.03;;;2.90;;
60372;SDS011;46216;52.220;5.134;2022-08-30T07:22:16;4.43;;;2.75;;
60372;SDS011;46216;52.220;5.134;2022-08-30T07:24:41;4.00;;;2.75;;
60372;SDS011;46216;52.220;5.134;2022-08-30T07:27:07;4.65;;;2.70;;
60372;SDS011;46216;52.220;5.134;2022-08-30T07:29:33;5.53;;;2.83;;
60372;SDS011;46216;52.220;5.134;2022-08-30T07:31:58;4.82;;;2.50;;
60372;SDS011;46216;52.220;5.134;2022-08-30T07:34:23;3.13;;;2.22;;
60372;SDS011;46216;52.220;5.134;2022-08-30T07:36:48;3.63;;;2.15;;
60372;SDS011;46216;52.220;5.134;2022-08-30T07:39:14;4.25;;;2.20;;
60372;SDS011;46216;52.220;5.134;2022-08-30T07:41:39;5.32;;;2.28;;
60372;SDS011;46216;52.220;5.134;2022-08-30T07:44:05;3.42;;;1.98;;
60372;SDS011;46216;52.220;5.134;2022-08-30T07:46:32;3.35;;;1.70;;
60372;SDS011;46216;52.220;5.134;2022-08-30T07:48:58;5.07;;;1.90;;
60372;SDS011;46216;52.220;5.134;2022-08-30T07:51:24;2.72;;;1.85;;
60372;SDS011;46216;52.220;5.134;2022-08-30T07:53:51;3.63;;;2.10;;
60372;SDS011;46216;52.220;5.134;2022-08-30T07:56:17;5.30;;;1.98;;
60372;SDS011;46216;52.220;5.134;2022-08-30T07:58:43;3.20;;;1.60;;
60372;SDS011;46216;52.220;5.134;2022-08-30T08:01:09;3.20;;;1.73;;
60372;SDS011;46216;52.220;5.134;2022-08-30T08:03:36;2.88;;;1.60;;
60372;SDS011;46216;52.220;5.134;2022-08-30T08:06:07;2.90;;;1.65;;
60372;SDS011;46216;52.220;5.134;2022-08-30T08:08:34;2.92;;;1.60;;
60372;SDS011;46216;52.220;5.134;2022-08-30T08:11:06;2.72;;;1.70;;
60372;SDS011;46216;52.220;5.134;2022-08-30T08:13:38;2.72;;;1.98;;
60372;SDS011;46216;52.220;5.134;2022-08-30T08:16:04;3.33;;;1.90;;
60372;SDS011;46216;52.220;5.134;2022-08-30T08:18:29;5.10;;;1.70;;
60372;SDS011;46216;52.220;5.134;2022-08-30T08:20:56;1.85;;;1.60;;
60372;SDS011;46216;52.220;5.134;2022-08-30T08:23:21;4.50;;;1.85;;
60372;SDS011;46216;52.220;5.134;2022-08-30T08:25:46;2.45;;;1.52;;
60372;SDS011;46216;52.220;5.134;2022-08-30T08:28:12;2.83;;;1.60;;
60372;SDS011;46216;52.220;5.134;2022-08-30T08:30:37;4.25;;;1.80;;
60372;SDS011;46216;52.220;5.134;2022-08-30T08:33:03;3.40;;;1.90;;
60372;SDS011;46216;52.220;5.134;2022-08-30T08:35:29;3.33;;;1.92;;
60372;SDS011;46216;52.220;5.134;2022-08-30T08:37:55;3.22;;;1.85;;
60372;SDS011;46216;52.220;5.134;2022-08-30T08:40:20;3.45;;;2.00;;
60372;SDS011;46216;52.220;5.134;2022-08-30T08:50:58;1.75;;;1.65;;
60372;SDS011;46216;52.220;5.134;2022-08-30T08:53:52;5.75;;;2.00;;
60372;SDS011;46216;52.220;5.134;2022-08-30T08:56:21;5.55;;;2.00;;
60372;SDS011;46216;52.220;5.134;2022-08-30T08:58:51;4.72;;;1.40;;
60372;SDS011;46216;52.220;5.134;2022-08-30T09:01:20;2.33;;;1.67;;
60372;SDS011;46216;52.220;5.134;2022-08-30T09:03:47;2.63;;;1.67;;
60372;SDS011;46216;52.220;5.134;2022-08-30T09:08:47;3.67;;;1.65;;
60372;SDS011;46216;52.220;5.134;2022-08-30T09:11:15;5.05;;;1.90;;
60372;SDS011;46216;52.220;5.134;2022-08-30T09:13:47;2.85;;;1.50;;
60372;SDS011;46216;52.220;5.134;2022-08-30T09:16:43;3.05;;;1.70;;
60372;SDS011;46216;52.220;5.134;2022-08-30T09:22:00;4.32;;;1.85;;
60372;SDS011;46216;52.220;5.134;2022-08-30T09:24:39;4.95;;;1.50;;
60372;SDS011;46216;52.220;5.134;2022-08-30T09:27:14;5.25;;;1.50;;
60372;SDS011;46216;52.220;5.134;2022-08-30T09:29:48;3.45;;;1.40;;
60372;SDS011;46216;52.220;5.134;2022-08-30T09:32:23;3.65;;;1.63;;
60372;SDS011;46216;52.220;5.134;2022-08-30T09:35:10;3.35;;;1.45;;
60372;SDS011;46216;52.220;5.134;2022-08-30T09:37:50;2.50;;;1.73;;
60372;SDS011;46216;52.220;5.134;2022-08-30T09:40:33;2.38;;;1.50;;
60372;SDS011;46216;52.220;5.134;2022-08-30T09:43:07;2.05;;;1.40;;
60372;SDS011;46216;52.220;5.134;2022-08-30T09:46:04;2.38;;;1.50;;
60372;SDS011;46216;52.220;5.134;2022-08-30T09:48:37;4.88;;;1.70;;
60372;SDS011;46216;52.220;5.134;2022-08-30T09:56:25;3.35;;;1.80;;
60372;SDS011;46216;52.220;5.134;2022-08-30T09:59:19;3.67;;;1.40;;
60372;SDS011;46216;52.220;5.134;2022-08-30T10:05:14;3.42;;;1.58;;
60372;SDS011;46216;52.220;5.134;2022-08-30T10:10:36;4.93;;;1.75;;
60372;SDS011;46216;52.220;5.134;2022-08-30T10:18:56;3.33;;;1.20;;
60372;SDS011;46216;52.220;5.134;2022-08-30T10:22:01;2.58;;;1.48;;
60372;SDS011;46216;52.220;5.134;2022-08-30T10:24:32;3.55;;;1.40;;
60372;SDS011;46216;52.220;5.134;2022-08-30T10:27:06;4.22;;;1.40;;
60372;SDS011;46216;52.220;5.134;2022-08-30T10:29:38;1.50;;;1.20;;
60372;SDS011;46216;52.220;5.134;2022-08-30T10:32:15;4.60;;;1.55;;
60372;SDS011;46216;52.220;5.134;2022-08-30T10:37:40;3.03;;;1.70;;
60372;SDS011;46216;52.220;5.134;2022-08-30T10:40:17;3.50;;;1.48;;
60372;SDS011;46216;52.220;5.134;2022-08-30T10:43:12;3.53;;;1.80;;
60372;SDS011;46216;52.220;5.134;2022-08-30T10:45:45;6.72;;;1.50;;
60372;SDS011;46216;52.220;5.134;2022-08-30T10:48:30;2.15;;;1.67;;
60372;SDS011;46216;52.220;5.134;2022-08-30T10:51:01;3.30;;;1.60;;
60372;SDS011;46216;52.220;5.134;2022-08-30T10:53:42;3.60;;;1.40;;
60372;SDS011;46216;52.220;5.134;2022-08-30T10:56:12;3.47;;;1.75;;
60372;SDS011;46216;52.220;5.134;2022-08-30T10:58:44;2.42;;;1.60;;
60372;SDS011;46216;52.220;5.134;2022-08-30T11:01:22;3.33;;;1.70;;
60372;SDS011;46216;52.220;5.134;2022-08-30T11:04:10;6.10;;;1.70;;
60372;SDS011;46216;52.220;5.134;2022-08-30T11:13:04;5.07;;;1.70;;
60372;SDS011;46216;52.220;5.134;2022-08-30T11:15:51;3.42;;;1.38;;
60372;SDS011;46216;52.220;5.134;2022-08-30T11:18:20;4.70;;;1.40;;
60372;SDS011;46216;52.220;5.134;2022-08-30T11:20:47;2.70;;;1.50;;
60372;SDS011;46216;52.220;5.134;2022-08-30T11:23:33;4.05;;;1.75;;
60372;SDS011;46216;52.220;5.134;2022-08-30T11:31:06;1.98;;;1.40;;
60372;SDS011;46216;52.220;5.134;2022-08-30T11:46:47;5.47;;;1.40;;
60372;SDS011;46216;52.220;5.134;2022-08-30T11:52:03;3.33;;;1.60;;
60372;SDS011;46216;52.220;5.134;2022-08-30T11:54:47;2.90;;;1.63;;
60372;SDS011;46216;52.220;5.134;2022-08-30T11:57:26;3.15;;;1.65;;
60372;SDS011;46216;52.220;5.134;2022-08-30T12:02:42;2.83;;;1.50;;
60372;SDS011;46216;52.220;5.134;2022-08-30T12:13:55;3.83;;;1.50;;
60372;SDS011;46216;52.220;5.134;2022-08-30T12:16:42;2.38;;;1.52;;
60372;SDS011;46216;52.220;5.134;2022-08-30T12:19:28;9.70;;;2.05;;
60372;SDS011;46216;52.220;5.134;2022-08-30T12:22:00;1.45;;;1.35;;
60372;SDS011;46216;52.220;5.134;2022-08-30T12:24:37;3.30;;;1.70;;
60372;SDS011;46216;52.220;5.134;2022-08-30T12:29:57;4.25;;;1.65;;
60372;SDS011;46216;52.220;5.134;2022-08-30T12:32:25;3.28;;;1.60;;
60372;SDS011;46216;52.220;5.134;2022-08-30T12:34:53;2.83;;;1.60;;
60372;SDS011;46216;52.220;5.134;2022-08-30T12:37:24;4.85;;;1.77;;
60372;SDS011;46216;52.220;5.134;2022-08-30T12:40:28;3.78;;;1.58;;
60372;SDS011;46216;52.220;5.134;2022-08-30T12:43:50;4.25;;;1.77;;
60372;SDS011;46216;52.220;5.134;2022-08-30T12:45:50;4.15;;;1.40;;
60372;SDS011;46216;52.220;5.134;2022-08-30T12:48:18;5.53;;;1.40;;
60372;SDS011;46216;52.220;5.134;2022-08-30T13:07:00;5.47;;;1.77;;
60372;SDS011;46216;52.220;5.134;2022-08-30T13:09:30;4.78;;;1.52;;
60372;SDS011;46216;52.220;5.134;2022-08-30T13:11:58;3.20;;;1.52;;
60372;SDS011;46216;52.220;5.134;2022-08-30T13:14:39;3.40;;;1.63;;
60372;SDS011;46216;52.220;5.134;2022-08-30T13:17:08;2.80;;;1.55;;
60372;SDS011;46216;52.220;5.134;2022-08-30T13:19:34;2.22;;;1.30;;
60372;SDS011;46216;52.220;5.134;2022-08-30T13:22:02;2.63;;;1.27;;
60372;SDS011;46216;52.220;5.134;2022-08-30T13:24:28;5.85;;;1.45;;
60372;SDS011;46216;52.220;5.134;2022-08-30T13:26:54;5.20;;;1.40;;
60372;SDS011;46216;52.220;5.134;2022-08-30T13:29:24;3.75;;;1.38;;
60372;SDS011;46216;52.220;5.134;2022-08-30T13:31:50;3.67;;;1.42;;
60372;SDS011;46216;52.220;5.134;2022-08-30T13:34:16;2.45;;;1.48;;
60372;SDS011;46216;52.220;5.134;2022-08-30T13:36:47;5.22;;;1.60;;
60372;SDS011;46216;52.220;5.134;2022-08-30T13:39:15;2.92;;;1.58;;
60372;SDS011;46216;52.220;5.134;2022-08-30T13:41:41;5.47;;;1.40;;
60372;SDS011;46216;52.220;5.134;2022-08-30T13:44:06;3.00;;;1.35;;
60372;SDS011;46216;52.220;5.134;2022-08-30T13:46:32;2.30;;;1.40;;
60372;SDS011;46216;52.220;5.134;2022-08-30T13:49:05;2.42;;;1.63;;
60372;SDS011;46216;52.220;5.134;2022-08-30T13:51:33;3.10;;;1.35;;
60372;SDS011;46216;52.220;5.134;2022-08-30T13:53:59;4.05;;;1.10;;
60372;SDS011;46216;52.220;5.134;2022-08-30T13:56:27;3.85;;;1.27;;
60372;SDS011;46216;52.220;5.134;2022-08-30T13:58:56;2.45;;;1.42;;
60372;SDS011;46216;52.220;5.134;2022-08-30T14:01:25;2.42;;;1.48;;
60372;SDS011;46216;52.220;5.134;2022-08-30T14:03:51;2.92;;;1.40;;
60372;SDS011;46216;52.220;5.134;2022-08-30T14:06:17;2.42;;;1.27;;
60372;SDS011;46216;52.220;5.134;2022-08-30T14:08:42;4.05;;;1.50;;
60372;SDS011;46216;52.220;5.134;2022-08-30T14:11:08;2.85;;;1.30;;
60372;SDS011;46216;52.220;5.134;2022-08-30T14:13:40;4.07;;;1.50;;
60372;SDS011;46216;52.220;5.134;2022-08-30T14:16:07;2.95;;;1.20;;
60372;SDS011;46216;52.220;5.134;2022-08-30T14:18:33;3.70;;;1.42;;
60372;SDS011;46216;52.220;5.134;2022-08-30T14:20:59;4.93;;;1.50;;
60372;SDS011;46216;52.220;5.134;2022-08-30T14:23:24;2.53;;;1.50;;
60372;SDS011;46216;52.220;5.134;2022-08-30T14:25:53;3.45;;;1.23;;
60372;SDS011;46216;52.220;5.134;2022-08-30T14:28:19;2.78;;;1.33;;
60372;SDS011;46216;52.220;5.134;2022-08-30T14:30:45;3.13;;;1.40;;
60372;SDS011;46216;52.220;5.134;2022-08-30T14:33:11;2.47;;;1.23;;
60372;SDS011;46216;52.220;5.134;2022-08-30T14:35:36;3.45;;;1.45;;
60372;SDS011;46216;52.220;5.134;2022-08-30T14:38:02;2.40;;;1.35;;
60372;SDS011;46216;52.220;5.134;2022-08-30T14:40:31;3.55;;;1.55;;
60372;SDS011;46216;52.220;5.134;2022-08-30T14:42:56;2.05;;;1.40;;
60372;SDS011;46216;52.220;5.134;2022-08-30T14:45:22;4.22;;;1.30;;
60372;SDS011;46216;52.220;5.134;2022-08-30T14:47:47;3.00;;;1.48;;
60372;SDS011;46216;52.220;5.134;2022-08-30T14:50:13;6.43;;;1.67;;
60372;SDS011;46216;52.220;5.134;2022-08-30T14:52:39;5.43;;;1.20;;
60372;SDS011;46216;52.220;5.134;2022-08-30T14:55:06;3.15;;;1.52;;
60372;SDS011;46216;52.220;5.134;2022-08-30T14:57:33;4.22;;;1.50;;
60372;SDS011;46216;52.220;5.134;2022-08-30T14:59:59;3.63;;;1.08;;
60372;SDS011;46216;52.220;5.134;2022-08-30T15:02:25;2.47;;;1.30;;
60372;SDS011;46216;52.220;5.134;2022-08-30T15:04:50;3.42;;;1.33;;
60372;SDS011;46216;52.220;5.134;2022-08-30T15:07:16;2.95;;;1.58;;
60372;SDS011;46216;52.220;5.134;2022-08-30T15:09:41;3.22;;;1.45;;
60372;SDS011;46216;52.220;5.134;2022-08-30T15:12:07;2.47;;;1.15;;
60372;SDS011;46216;52.220;5.134;2022-08-30T15:14:33;2.70;;;1.48;;
60372;SDS011;46216;52.220;5.134;2022-08-30T15:16:58;3.88;;;1.30;;
60372;SDS011;46216;52.220;5.134;2022-08-30T15:19:27;3.00;;;1.52;;
60372;SDS011;46216;52.220;5.134;2022-08-30T15:21:52;4.30;;;1.38;;
60372;SDS011;46216;52.220;5.134;2022-08-30T15:24:22;1.42;;;1.17;;
60372;SDS011;46216;52.220;5.134;2022-08-30T15:26:48;2.15;;;1.30;;
60372;SDS011;46216;52.220;5.134;2022-08-30T15:29:15;2.50;;;1.10;;
60372;SDS011;46216;52.220;5.134;2022-08-30T15:31:42;3.75;;;1.17;;
60372;SDS011;46216;52.220;5.134;2022-08-30T15:34:09;4.82;;;1.23;;
60372;SDS011;46216;52.220;5.134;2022-08-30T15:36:36;3.42;;;1.30;;
60372;SDS011;46216;52.220;5.134;2022-08-30T15:39:02;2.85;;;1.42;;
60372;SDS011;46216;52.220;5.134;2022-08-30T15:41:28;2.40;;;1.25;;
60372;SDS011;46216;52.220;5.134;2022-08-30T15:43:54;4.28;;;1.48;;
60372;SDS011;46216;52.220;5.134;2022-08-30T15:46:22;2.30;;;1.30;;
60372;SDS011;46216;52.220;5.134;2022-08-30T15:48:57;1.52;;;1.20;;
60372;SDS011;46216;52.220;5.134;2022-08-30T15:51:24;3.97;;;1.40;;
60372;SDS011;46216;52.220;5.134;2022-08-30T15:53:50;3.35;;;1.30;;
60372;SDS011;46216;52.220;5.134;2022-08-30T15:56:17;3.10;;;1.38;;
60372;SDS011;46216;52.220;5.134;2022-08-30T15:58:43;4.18;;;1.40;;
60372;SDS011;46216;52.220;5.134;2022-08-30T16:01:09;2.45;;;1.50;;
60372;SDS011;46216;52.220;5.134;2022-08-30T16:03:36;7.30;;;1.50;;
60372;SDS011;46216;52.220;5.134;2022-08-30T16:06:04;3.15;;;1.40;;
60372;SDS011;46216;52.220;5.134;2022-08-30T16:08:34;4.28;;;1.40;;
60372;SDS011;46216;52.220;5.134;2022-08-30T16:11:00;3.00;;;1.48;;
60372;SDS011;46216;52.220;5.134;2022-08-30T16:13:25;2.63;;;1.40;;
60372;SDS011;46216;52.220;5.134;2022-08-30T16:15:50;2.15;;;1.38;;
60372;SDS011;46216;52.220;5.134;2022-08-30T16:18:16;1.92;;;1.42;;
60372;SDS011;46216;52.220;5.134;2022-08-30T16:20:41;1.98;;;1.45;;
60372;SDS011;46216;52.220;5.134;2022-08-30T16:23:08;4.80;;;1.48;;
60372;SDS011;46216;52.220;5.134;2022-08-30T16:25:35;3.75;;;1.30;;
60372;SDS011;46216;52.220;5.134;2022-08-30T16:28:01;2.42;;;1.42;;
60372;SDS011;46216;52.220;5.134;2022-08-30T16:30:27;3.30;;;1.60;;
60372;SDS011;46216;52.220;5.134;2022-08-30T16:32:52;2.13;;;1.30;;
60372;SDS011;46216;52.220;5.134;2022-08-30T16:35:17;2.75;;;1.33;;
60372;SDS011;46216;52.220;5.134;2022-08-30T16:37:43;4.50;;;1.30;;